createdAt,value
2022-09-06T00:00:17.962Z,101666.88
2022-09-06T00:02:45.724Z,101673.97
2022-09-06T00:05:14.205Z,101665.28
2022-09-06T00:07:41.411Z,101667.22
2022-09-06T00:10:08.869Z,101669.84
2022-09-06T00:12:35.837Z,101671.56
2022-09-06T00:15:04.030Z,101672.22
2022-09-06T00:17:32.198Z,101669.91
2022-09-06T00:19:59.570Z,101668.28
2022-09-06T00:22:26.438Z,101671.66
2022-09-06T00:24:53.262Z,101668.44
2022-09-06T00:27:20.113Z,101662.78
2022-09-06T00:29:46.978Z,101659.91
2022-09-06T00:32:13.761Z,101659.66
2022-09-06T00:34:40.560Z,101657.78
2022-09-06T00:37:07.367Z,101652.03
2022-09-06T00:39:34.790Z,101656.53
2022-09-06T00:42:01.710Z,101657.88
2022-09-06T00:44:28.577Z,101662.72
2022-09-06T00:46:55.813Z,101666.22
2022-09-06T00:49:27.603Z,101655.91
2022-09-06T00:52:01.279Z,101654.84
2022-09-06T00:54:28.400Z,101656.81
2022-09-06T00:56:56.075Z,101656.19
2022-09-06T00:59:26.021Z,101659.56
2022-09-06T01:01:53.445Z,101653.63
2022-09-06T01:04:20.645Z,101660.69
2022-09-06T01:07:16.310Z,101655.25
2022-09-06T01:10:02.196Z,101658.78
2022-09-06T01:12:29.054Z,101653.47
2022-09-06T01:15:16.087Z,101661.78
2022-09-06T01:18:08.587Z,101650.91
2022-09-06T01:21:02.605Z,101648.44
2022-09-06T01:24:01.836Z,101641.28
2022-09-06T01:26:56.509Z,101649.38
2022-09-06T01:29:39.446Z,101657.03
2022-09-06T01:32:19.252Z,101648.41
2022-09-06T01:34:54.267Z,101639.03
2022-09-06T01:37:23.756Z,101641.19
2022-09-06T01:39:53.366Z,101642.25
2022-09-06T01:42:28.169Z,101638.75
2022-09-06T01:44:59.666Z,101635.84
2022-09-06T01:47:29.494Z,101631.88
2022-09-06T01:50:14.921Z,101633.88
2022-09-06T01:53:04.532Z,101627.97
2022-09-06T01:55:49.544Z,101632.66
2022-09-06T01:58:59.076Z,101631.69
2022-09-06T02:01:56.892Z,101628.91
2022-09-06T02:04:33.759Z,101623.09
2022-09-06T02:07:08.775Z,101628.44
2022-09-06T02:09:41.047Z,101627.88
2022-09-06T02:12:13.374Z,101626.84
2022-09-06T02:14:49.794Z,101629.19
2022-09-06T02:17:23.445Z,101620.56
2022-09-06T02:20:13.393Z,101622.44
2022-09-06T02:22:43.851Z,101623.66
2022-09-06T02:25:18.592Z,101633.84
2022-09-06T02:27:45.644Z,101620.78
2022-09-06T02:30:12.955Z,101624.78
2022-09-06T02:32:49.732Z,101617.06
2022-09-06T02:35:17.244Z,101617.34
2022-09-06T02:37:44.796Z,101617.69
2022-09-06T02:40:12.346Z,101617.38
2022-09-06T02:42:40.510Z,101615.66
2022-09-06T02:45:08.305Z,101610.88
2022-09-06T02:47:35.377Z,101607.56
2022-09-06T02:50:02.293Z,101607.66
2022-09-06T02:52:29.228Z,101598.56
2022-09-06T02:54:56.468Z,101593.66
2022-09-06T02:57:23.307Z,101604.50
2022-09-06T02:59:50.166Z,101607.38
2022-09-06T03:02:17.286Z,101606.41
2022-09-06T03:04:44.202Z,101603.22
2022-09-06T03:07:11.076Z,101604.03
2022-09-06T03:09:37.932Z,101605.09
2022-09-06T03:12:05.739Z,101601.72
2022-09-06T03:14:32.556Z,101594.09
2022-09-06T03:16:59.490Z,101592.88
2022-09-06T03:19:26.428Z,101589.16
2022-09-06T03:21:53.250Z,101592.66
2022-09-06T03:24:20.083Z,101585.28
2022-09-06T03:26:46.886Z,101581.63
2022-09-06T03:29:13.797Z,101592.59
2022-09-06T03:31:40.632Z,101578.72
2022-09-06T03:34:10.892Z,101581.56
2022-09-06T03:36:38.170Z,101584.72
2022-09-06T03:39:05.019Z,101580.03
2022-09-06T03:41:32.394Z,101574.03
2022-09-06T03:43:59.241Z,101566.47
2022-09-06T03:46:26.108Z,101575.59
2022-09-06T03:48:52.969Z,101570.13
2022-09-06T03:51:21.028Z,101568.78
2022-09-06T03:53:47.932Z,101569.53
2022-09-06T03:56:14.803Z,101577.13
2022-09-06T03:58:41.639Z,101574.84
2022-09-06T04:01:10.935Z,101569.25
2022-09-06T04:03:38.958Z,101575.28
2022-09-06T04:06:06.854Z,101579.22
2022-09-06T04:08:34.328Z,101583.72
2022-09-06T04:11:01.486Z,101578.81
2022-09-06T04:13:29.426Z,101584.34
2022-09-06T04:15:56.295Z,101574.50
2022-09-06T04:18:23.614Z,101577.38
2022-09-06T04:20:52.545Z,101580.56
2022-09-06T04:23:20.304Z,101578.53
2022-09-06T04:25:48.499Z,101578.19
2022-09-06T04:28:18.238Z,101583.31
2022-09-06T04:31:04.882Z,101586.34
2022-09-06T04:33:34.241Z,101582.47
2022-09-06T04:36:03.411Z,101579.25
2022-09-06T04:38:34.662Z,101582.28
2022-09-06T04:41:01.570Z,101587.88
2022-09-06T04:43:28.396Z,101582.31
2022-09-06T04:45:55.199Z,101585.13
2022-09-06T04:48:22.388Z,101591.72
2022-09-06T04:50:49.290Z,101584.06
2022-09-06T04:53:16.074Z,101588.75
2022-09-06T04:55:43.796Z,101582.91
2022-09-06T04:58:11.096Z,101584.09
2022-09-06T05:00:39.729Z,101587.41
2022-09-06T05:03:06.610Z,101589.53
2022-09-06T05:05:33.512Z,101598.03
2022-09-06T05:08:00.862Z,101598.41
2022-09-06T05:10:28.103Z,101600.81
2022-09-06T05:12:55.036Z,101610.47
2022-09-06T05:15:23.234Z,101605.06
2022-09-06T05:17:50.219Z,101604.06
2022-09-06T05:20:18.124Z,101611.47
2022-09-06T05:22:53.188Z,101618.03
2022-09-06T05:25:20.484Z,101609.47
2022-09-06T05:27:47.272Z,101621.63
2022-09-06T05:30:14.897Z,101615.25
2022-09-06T05:32:41.747Z,101617.75
2022-09-06T05:35:09.014Z,101624.50
2022-09-06T05:37:35.920Z,101622.78
2022-09-06T05:40:03.117Z,101619.41
2022-09-06T05:42:30.003Z,101627.19
2022-09-06T05:44:56.781Z,101619.09
2022-09-06T05:47:23.639Z,101625.44
2022-09-06T05:49:50.468Z,101624.69
2022-09-06T05:52:17.566Z,101618.63
2022-09-06T05:54:44.359Z,101618.34
2022-09-06T05:57:11.151Z,101617.97
2022-09-06T05:59:37.932Z,101617.16
2022-09-06T06:02:07.475Z,101613.53
2022-09-06T06:04:34.742Z,101615.50
2022-09-06T06:07:01.941Z,101620.69
2022-09-06T06:09:28.738Z,101618.91
2022-09-06T06:11:55.613Z,101622.47
2022-09-06T06:14:22.385Z,101626.81
2022-09-06T06:16:49.316Z,101618.09
2022-09-06T06:19:16.278Z,101627.00
2022-09-06T06:21:43.766Z,101616.66
2022-09-06T06:24:10.537Z,101616.16
2022-09-06T06:26:38.089Z,101620.00
2022-09-06T06:29:08.232Z,101624.31
2022-09-06T06:31:36.879Z,101625.47
2022-09-06T06:34:04.352Z,101621.03
2022-09-06T06:36:33.815Z,101622.97
2022-09-06T06:39:02.935Z,101620.72
2022-09-06T06:41:32.354Z,101620.75
2022-09-06T06:44:01.726Z,101612.44
2022-09-06T06:46:32.593Z,101607.94
2022-09-06T06:48:59.716Z,101606.88
2022-09-06T06:51:32.417Z,101615.72
2022-09-06T06:53:59.981Z,101614.56
2022-09-06T06:56:29.972Z,101607.41
2022-09-06T06:58:59.654Z,101602.47
2022-09-06T07:01:29.462Z,101597.06
2022-09-06T07:03:57.075Z,101599.56
2022-09-06T07:09:11.422Z,101599.47
2022-09-06T07:11:38.422Z,101592.13
2022-09-06T07:14:05.456Z,101591.16
2022-09-06T07:16:32.378Z,101584.56
2022-09-06T07:18:59.403Z,101587.63
2022-09-06T07:21:42.557Z,101585.88
2022-09-06T07:24:10.090Z,101586.69
2022-09-06T07:26:39.709Z,101581.03
2022-09-06T07:29:08.270Z,101584.13
2022-09-06T07:34:25.791Z,101587.41
2022-09-06T07:36:54.179Z,101594.19
2022-09-06T07:39:21.419Z,101599.22
2022-09-06T07:41:48.487Z,101603.78
2022-09-06T07:44:15.788Z,101609.09
2022-09-06T07:46:42.968Z,101605.25
2022-09-06T07:49:09.835Z,101602.31
2022-09-06T07:51:36.785Z,101601.94
2022-09-06T07:54:28.783Z,101601.06
2022-09-06T07:56:51.205Z,101603.50
2022-09-06T07:59:18.049Z,101609.72
2022-09-06T08:01:44.932Z,101605.69
2022-09-06T08:04:14.223Z,101602.13
2022-09-06T08:09:35.155Z,101599.41
2022-09-06T08:12:07.404Z,101593.16
2022-09-06T08:14:34.946Z,101577.88
2022-09-06T08:17:03.192Z,101581.88
2022-09-06T08:19:30.228Z,101585.22
2022-09-06T08:21:57.306Z,101579.63
2022-09-06T08:24:24.146Z,101581.06
2022-09-06T08:26:51.088Z,101590.53
2022-09-06T08:29:19.836Z,101593.84
2022-09-06T08:31:46.896Z,101594.09
2022-09-06T08:34:15.120Z,101587.72
2022-09-06T08:36:42.360Z,101591.91
2022-09-06T08:39:10.470Z,101603.59
2022-09-06T08:41:58.568Z,101594.59
2022-09-06T08:44:57.647Z,101601.78
2022-09-06T08:47:25.279Z,101599.25
2022-09-06T08:50:01.230Z,101613.97
2022-09-06T08:53:06.161Z,101616.72
2022-09-06T08:55:54.175Z,101615.53
2022-09-06T08:58:26.949Z,101618.28
2022-09-06T09:01:08.806Z,101614.94
2022-09-06T09:03:37.959Z,101612.03
2022-09-06T09:06:07.402Z,101606.00
2022-09-06T09:09:08.023Z,101608.25
2022-09-06T09:11:36.399Z,101606.41
2022-09-06T09:14:16.842Z,101609.56
2022-09-06T09:16:44.402Z,101601.00
2022-09-06T09:19:11.323Z,101608.22
2022-09-06T09:21:40.474Z,101621.16
2022-09-06T09:24:10.005Z,101615.81
2022-09-06T09:27:08.642Z,101623.19
2022-09-06T09:32:46.268Z,101618.50
2022-09-06T09:35:30.018Z,101622.34
2022-09-06T09:38:13.312Z,101619.53
2022-09-06T09:40:49.249Z,101615.22
2022-09-06T09:43:20.867Z,101623.59
2022-09-06T09:46:11.936Z,101610.13
2022-09-06T09:48:40.407Z,101615.41
2022-09-06T09:51:27.650Z,101624.94
2022-09-06T09:53:57.440Z,101607.44
2022-09-06T09:56:49.754Z,101608.31
2022-09-06T09:59:21.922Z,101607.34
2022-09-06T10:01:49.431Z,101616.50
2022-09-06T10:04:45.326Z,101617.88
2022-09-06T10:07:24.156Z,101608.31
2022-09-06T10:10:00.730Z,101605.47
2022-09-06T10:12:30.069Z,101607.75
2022-09-06T10:14:57.789Z,101591.06
2022-09-06T10:17:48.417Z,101601.75
2022-09-06T10:20:16.467Z,101595.88
2022-09-06T10:23:04.984Z,101609.00
2022-09-06T10:25:37.799Z,101598.38
2022-09-06T10:28:22.874Z,101595.56
2022-09-06T10:31:05.640Z,101584.59
2022-09-06T10:34:00.440Z,101588.31
2022-09-06T10:36:36.006Z,101588.69
2022-09-06T10:39:26.892Z,101576.66
2022-09-06T10:42:07.105Z,101581.44
2022-09-06T10:44:49.313Z,101572.03
2022-09-06T10:47:16.557Z,101555.22
2022-09-06T10:49:54.239Z,101564.84
2022-09-06T10:52:31.300Z,101562.13
2022-09-06T10:55:05.625Z,101553.78
2022-09-06T11:00:47.671Z,101550.16
2022-09-06T11:06:12.787Z,101559.78
2022-09-06T11:09:00.395Z,101564.53
2022-09-06T11:11:43.482Z,101542.25
2022-09-06T11:14:15.426Z,101539.69
2022-09-06T11:16:57.697Z,101530.09
2022-09-06T11:19:31.835Z,101544.19
2022-09-06T11:22:38.715Z,101540.56
2022-09-06T11:25:43.036Z,101547.63
2022-09-06T11:28:15.930Z,101549.50
2022-09-06T11:30:48.261Z,101543.31
2022-09-06T11:33:27.518Z,101550.47
2022-09-06T11:36:28.588Z,101543.91
2022-09-06T11:38:57.990Z,101554.16
2022-09-06T11:41:31.437Z,101539.31
2022-09-06T11:43:59.206Z,101548.09
2022-09-06T11:46:35.254Z,101538.13
2022-09-06T11:49:06.284Z,101544.69
2022-09-06T11:51:38.140Z,101536.63
2022-09-06T11:54:30.465Z,101535.75
2022-09-06T11:57:12.667Z,101535.09
2022-09-06T11:59:45.871Z,101526.16
2022-09-06T12:02:40.831Z,101524.38
2022-09-06T12:05:11.741Z,101509.53
2022-09-06T12:07:59.347Z,101517.34
2022-09-06T12:10:29.193Z,101513.88
2022-09-06T12:12:57.529Z,101516.59
2022-09-06T12:15:30.938Z,101528.88
2022-09-06T12:17:59.817Z,101515.69
2022-09-06T12:20:48.529Z,101505.88
2022-09-06T12:23:42.793Z,101501.59
2022-09-06T12:26:10.878Z,101506.91
2022-09-06T12:28:49.796Z,101487.47
2022-09-06T12:31:36.687Z,101490.97
2022-09-06T12:34:14.187Z,101494.53
2022-09-06T12:37:03.630Z,101494.56
2022-09-06T12:39:31.518Z,101490.09
2022-09-06T12:42:02.561Z,101497.16
2022-09-06T12:44:35.702Z,101497.94
2022-09-06T12:47:12.842Z,101490.63
2022-09-06T12:49:39.701Z,101487.22
2022-09-06T12:52:13.969Z,101491.53
2022-09-06T12:54:48.207Z,101482.72
2022-09-06T12:57:26.017Z,101487.31
2022-09-06T12:59:55.486Z,101482.72
2022-09-06T13:02:58.286Z,101487.00
2022-09-06T13:05:26.712Z,101474.09
2022-09-06T13:07:58.091Z,101476.81
2022-09-06T13:10:26.272Z,101475.25
2022-09-06T13:12:55.343Z,101462.06
2022-09-06T13:15:31.984Z,101459.34
2022-09-06T13:18:31.087Z,101460.03
2022-09-06T13:21:05.725Z,101462.63
2022-09-06T13:23:47.699Z,101467.09
2022-09-06T13:26:15.471Z,101461.69
2022-09-06T13:28:42.299Z,101454.63
2022-09-06T13:31:20.143Z,101452.78
2022-09-06T13:33:59.484Z,101448.44
2022-09-06T13:36:32.976Z,101445.03
2022-09-06T13:39:03.556Z,101449.75
2022-09-06T13:41:30.339Z,101449.00
2022-09-06T13:44:07.876Z,101446.22
2022-09-06T13:46:38.116Z,101446.97
2022-09-06T13:49:05.714Z,101451.78
2022-09-06T13:51:34.073Z,101447.22
2022-09-06T13:54:15.156Z,101441.88
2022-09-06T13:56:44.722Z,101446.34
2022-09-06T13:59:12.235Z,101448.25
2022-09-06T14:01:44.768Z,101460.09
2022-09-06T14:04:14.738Z,101453.91
2022-09-06T14:06:42.260Z,101454.63
2022-09-06T14:09:09.541Z,101452.09
2022-09-06T14:11:37.119Z,101451.22
2022-09-06T14:14:05.006Z,101443.66
2022-09-06T14:16:33.242Z,101442.47
2022-09-06T14:19:00.028Z,101432.16
2022-09-06T14:21:26.976Z,101441.56
2022-09-06T14:23:54.077Z,101437.28
2022-09-06T14:26:21.980Z,101425.50
2022-09-06T14:28:49.104Z,101422.72
2022-09-06T14:31:26.214Z,101429.75
2022-09-06T14:33:54.612Z,101419.13
2022-09-06T14:36:23.981Z,101422.47
2022-09-06T14:38:51.252Z,101421.75
2022-09-06T14:41:19.258Z,101413.22
2022-09-06T14:43:52.079Z,101413.78
2022-09-06T14:46:22.092Z,101413.03
2022-09-06T14:48:49.655Z,101418.16
2022-09-06T14:51:21.846Z,101399.78
2022-09-06T14:53:51.025Z,101402.34
2022-09-06T14:56:18.632Z,101399.44
2022-09-06T14:58:46.628Z,101397.94
2022-09-06T15:01:19.513Z,101404.94
2022-09-06T15:03:51.469Z,101393.59
2022-09-06T15:06:22.910Z,101385.59
2022-09-06T15:08:50.642Z,101392.09
2022-09-06T15:11:35.559Z,101382.22
2022-09-06T15:14:24.107Z,101392.19
2022-09-06T15:16:55.913Z,101383.94
2022-09-06T15:19:24.849Z,101388.56
2022-09-06T15:21:51.804Z,101375.25
2022-09-06T15:24:18.765Z,101376.44
2022-09-06T15:26:45.993Z,101361.78
2022-09-06T15:29:14.097Z,101359.28
2022-09-06T15:31:42.712Z,101362.22
2022-09-06T15:34:10.481Z,101361.84
2022-09-06T15:36:37.349Z,101361.81
2022-09-06T15:39:05.226Z,101358.19
2022-09-06T15:41:35.675Z,101351.81
2022-09-06T15:44:13.912Z,101355.97
2022-09-06T15:46:40.650Z,101356.44
2022-09-06T15:49:09.612Z,101361.75
2022-09-06T15:51:38.210Z,101353.69
2022-09-06T15:54:06.359Z,101357.66
2022-09-06T15:56:33.302Z,101353.84
2022-09-06T15:59:00.224Z,101353.25
2022-09-06T16:01:27.251Z,101351.09
2022-09-06T16:04:03.281Z,101344.28
2022-09-06T16:06:33.153Z,101340.31
2022-09-06T16:09:06.307Z,101343.91
2022-09-06T16:11:36.527Z,101336.88
2022-09-06T16:14:05.687Z,101342.75
2022-09-06T16:16:34.601Z,101334.06
2022-09-06T16:19:01.784Z,101333.09
2022-09-06T16:21:32.238Z,101325.25
2022-09-06T16:24:04.770Z,101312.16
2022-09-06T16:26:37.293Z,101322.03
2022-09-06T16:29:06.827Z,101316.78
2022-09-06T16:31:39.122Z,101328.25
2022-09-06T16:34:07.997Z,101323.75
2022-09-06T16:36:35.192Z,101330.09
2022-09-06T16:39:02.741Z,101324.72
2022-09-06T16:41:42.300Z,101325.59
2022-09-06T16:44:16.040Z,101322.88
2022-09-06T16:46:48.348Z,101322.88
2022-09-06T16:49:17.475Z,101320.25
2022-09-06T16:51:45.355Z,101329.19
2022-09-06T16:54:12.611Z,101327.34
2022-09-06T16:56:40.072Z,101334.34
2022-09-06T16:59:08.627Z,101326.31
2022-09-06T17:01:37.425Z,101317.66
2022-09-06T17:04:05.519Z,101326.47
2022-09-06T17:06:38.914Z,101318.63
2022-09-06T17:09:05.837Z,101323.03
2022-09-06T17:11:32.708Z,101324.75
2022-09-06T17:13:59.899Z,101330.94
2022-09-06T17:16:45.372Z,101330.97
2022-09-06T17:19:13.580Z,101330.09
2022-09-06T17:21:41.191Z,101333.63
2022-09-06T17:24:08.966Z,101330.97
2022-09-06T17:26:38.383Z,101333.59
2022-09-06T17:29:06.236Z,101335.38
2022-09-06T17:31:33.389Z,101338.03
2022-09-06T17:34:00.341Z,101338.91
2022-09-06T17:36:30.560Z,101339.69
2022-09-06T17:39:03.518Z,101336.97
2022-09-06T17:41:37.089Z,101341.34
2022-09-06T17:44:05.710Z,101338.81
2022-09-06T17:46:32.746Z,101344.91
2022-09-06T17:48:59.651Z,101351.88
2022-09-06T17:51:26.489Z,101350.13
2022-09-06T17:53:53.628Z,101351.97
2022-09-06T17:56:21.233Z,101348.50
2022-09-06T17:58:56.166Z,101359.03
2022-09-06T18:01:24.959Z,101366.88
2022-09-06T18:03:52.565Z,101371.09
2022-09-06T18:06:24.711Z,101378.03
2022-09-06T18:08:55.017Z,101384.16
2022-09-06T18:11:28.086Z,101385.00
2022-09-06T18:14:00.216Z,101376.13
2022-09-06T18:16:28.483Z,101379.81
2022-09-06T18:18:58.125Z,101373.31
2022-09-06T18:21:26.451Z,101372.25
2022-09-06T18:23:54.494Z,101377.59
2022-09-06T18:26:21.611Z,101368.81
2022-09-06T18:28:48.618Z,101367.88
2022-09-06T18:31:19.237Z,101370.75
2022-09-06T18:33:46.658Z,101378.59
2022-09-06T18:36:19.762Z,101380.16
2022-09-06T18:38:46.933Z,101388.84
2022-09-06T18:41:34.048Z,101388.28
2022-09-06T18:44:02.877Z,101393.25
2022-09-06T18:46:32.100Z,101389.44
2022-09-06T18:48:59.446Z,101397.28
2022-09-06T18:51:26.438Z,101390.84
2022-09-06T18:53:55.347Z,101394.72
2022-09-06T18:56:22.489Z,101399.84
2022-09-06T18:58:49.753Z,101402.38
2022-09-06T19:01:18.258Z,101413.56
2022-09-06T19:03:45.232Z,101410.88
2022-09-06T19:06:16.229Z,101416.94
2022-09-06T19:08:43.444Z,101422.25
2022-09-06T19:11:12.736Z,101426.31
2022-09-06T19:13:41.898Z,101419.31
2022-09-06T19:16:10.329Z,101427.44
2022-09-06T19:18:38.340Z,101427.88
2022-09-06T19:21:26.008Z,101425.50
2022-09-06T19:23:58.942Z,101418.97
2022-09-06T19:26:28.150Z,101418.97
2022-09-06T19:28:57.713Z,101414.47
2022-09-06T19:31:27.097Z,101415.41
2022-09-06T19:33:55.466Z,101415.53
2022-09-06T19:36:23.761Z,101411.28
2022-09-06T19:39:04.417Z,101405.41
2022-09-06T19:41:35.809Z,101416.06
2022-09-06T19:44:05.732Z,101414.72
2022-09-06T19:46:33.099Z,101411.47
2022-09-06T19:49:00.564Z,101411.88
2022-09-06T19:51:27.574Z,101409.19
2022-09-06T19:53:59.997Z,101407.38
2022-09-06T19:56:32.661Z,101403.00
2022-09-06T19:59:08.194Z,101408.47
2022-09-06T20:01:37.723Z,101412.84
2022-09-06T20:04:07.022Z,101406.50
2022-09-06T20:06:35.207Z,101403.03
2022-09-06T20:09:03.312Z,101402.66
2022-09-06T20:11:32.286Z,101404.09
2022-09-06T20:14:00.043Z,101395.06
2022-09-06T20:16:27.335Z,101397.63
2022-09-06T20:18:55.308Z,101396.94
2022-09-06T20:21:22.509Z,101397.34
2022-09-06T20:23:54.128Z,101392.91
2022-09-06T20:26:23.734Z,101393.94
2022-09-06T20:28:58.588Z,101396.53
2022-09-06T20:31:26.521Z,101405.28
2022-09-06T20:33:53.791Z,101407.09
2022-09-06T20:36:20.986Z,101400.00
2022-09-06T20:38:48.550Z,101396.47
2022-09-06T20:41:23.855Z,101389.28
2022-09-06T20:43:58.580Z,101390.34
2022-09-06T20:46:27.669Z,101382.44
2022-09-06T20:48:57.713Z,101382.38
2022-09-06T20:51:25.239Z,101379.59
2022-09-06T20:53:55.429Z,101381.44
2022-09-06T20:56:24.871Z,101379.56
2022-09-06T20:58:53.959Z,101380.47
2022-09-06T21:01:25.282Z,101366.28
2022-09-06T21:03:54.412Z,101374.84
2022-09-06T21:06:22.874Z,101364.41
2022-09-06T21:08:50.364Z,101369.44
2022-09-06T21:11:17.935Z,101355.44
2022-09-06T21:13:49.698Z,101357.72
2022-09-06T21:16:20.508Z,101349.44
2022-09-06T21:18:55.356Z,101358.56
2022-09-06T21:21:22.625Z,101351.06
2022-09-06T21:23:49.425Z,101341.53
2022-09-06T21:26:16.459Z,101337.03
2022-09-06T21:28:45.443Z,101332.41
2022-09-06T21:31:19.822Z,101336.28
2022-09-06T21:33:48.600Z,101333.00
2022-09-06T21:36:18.657Z,101324.69
2022-09-06T21:38:47.883Z,101318.25
2022-09-06T21:41:16.975Z,101315.13
2022-09-06T21:43:45.174Z,101310.31
2022-09-06T21:46:20.512Z,101306.28
2022-09-06T21:48:50.077Z,101309.31
2022-09-06T21:51:19.375Z,101314.25
2022-09-06T21:53:48.906Z,101315.31
2022-09-06T21:56:16.617Z,101308.16
2022-09-06T21:58:44.616Z,101313.47
2022-09-06T22:01:11.865Z,101315.06
2022-09-06T22:03:45.623Z,101311.25
2022-09-06T22:06:15.433Z,101315.72
2022-09-06T22:08:43.874Z,101322.97
2022-09-06T22:11:32.186Z,101325.97
2022-09-06T22:14:04.023Z,101329.94
2022-09-06T22:16:32.675Z,101327.22
2022-09-06T22:18:59.920Z,101310.22
2022-09-06T22:21:26.931Z,101299.53
2022-09-06T22:23:58.731Z,101298.81
2022-09-06T22:26:27.992Z,101297.94
2022-09-06T22:28:59.924Z,101300.13
2022-09-06T22:31:28.643Z,101297.94
2022-09-06T22:33:56.506Z,101307.94
2022-09-06T22:36:24.514Z,101315.84
2022-09-06T22:38:58.937Z,101315.50
2022-09-06T22:41:27.571Z,101311.41
2022-09-06T22:43:54.902Z,101301.91
2022-09-06T22:46:21.749Z,101307.56
2022-09-06T22:48:49.259Z,101298.63
2022-09-06T22:51:16.457Z,101301.69
2022-09-06T22:53:43.705Z,101301.69
2022-09-06T22:56:10.765Z,101298.28
2022-09-06T22:58:37.568Z,101292.34
2022-09-06T23:01:11.716Z,101299.59
2022-09-06T23:03:39.343Z,101299.06
2022-09-06T23:06:09.748Z,101299.28
2022-09-06T23:08:38.632Z,101295.72
2022-09-06T23:11:08.086Z,101295.88
2022-09-06T23:13:35.166Z,101301.50
2022-09-06T23:16:06.625Z,101301.94
2022-09-06T23:18:34.046Z,101312.44
2022-09-06T23:21:09.140Z,101307.06
2022-09-06T23:23:36.805Z,101326.19
2022-09-06T23:26:24.128Z,101319.25
2022-09-06T23:28:56.394Z,101332.06
2022-09-06T23:31:28.739Z,101347.53
2022-09-06T23:33:57.592Z,101352.47
2022-09-06T23:36:25.065Z,101341.81
2022-09-06T23:38:52.327Z,101336.03
2022-09-06T23:41:19.185Z,101320.47
2022-09-06T23:43:45.997Z,101314.41
2022-09-06T23:46:14.778Z,101304.81
2022-09-06T23:48:42.899Z,101290.25
2022-09-06T23:51:09.804Z,101293.56
2022-09-06T23:53:36.717Z,101291.81
2022-09-06T23:56:04.449Z,101295.97
2022-09-06T23:58:31.790Z,101292.75
